sensor_id;sensor_type;location;lat;lon;timestamp;temperature;humidity
44607;DHT22;30315;46.072;14.474;2023-02-28T00:01:32;4.40;59.60
44607;DHT22;30315;46.072;14.474;2023-02-28T00:03:59;4.40;59.70
44607;DHT22;30315;46.072;14.474;2023-02-28T00:06:27;4.40;59.80
44607;DHT22;30315;46.072;14.474;2023-02-28T00:08:54;4.50;59.80
44607;DHT22;30315;46.072;14.474;2023-02-28T00:11:21;4.50;59.60
44607;DHT22;30315;46.072;14.474;2023-02-28T00:13:49;4.60;59.70
44607;DHT22;30315;46.072;14.474;2023-02-28T00:16:19;4.70;59.60
44607;DHT22;30315;46.072;14.474;2023-02-28T00:18:47;4.40;59.20
44607;DHT22;30315;46.072;14.474;2023-02-28T00:21:15;4.40;59.30
44607;DHT22;30315;46.072;14.474;2023-02-28T00:23:43;4.50;59.30
44607;DHT22;30315;46.072;14.474;2023-02-28T00:26:10;4.10;59.00
44607;DHT22;30315;46.072;14.474;2023-02-28T00:28:40;4.60;59.40
44607;DHT22;30315;46.072;14.474;2023-02-28T00:31:07;4.70;59.20
44607;DHT22;30315;46.072;14.474;2023-02-28T00:33:34;4.50;59.40
44607;DHT22;30315;46.072;14.474;2023-02-28T00:36:03;4.50;59.20
44607;DHT22;30315;46.072;14.474;2023-02-28T00:38:31;4.50;59.10
44607;DHT22;30315;46.072;14.474;2023-02-28T00:41:00;4.50;58.80
44607;DHT22;30315;46.072;14.474;2023-02-28T00:43:36;4.50;58.60
44607;DHT22;30315;46.072;14.474;2023-02-28T00:46:04;4.60;58.70
44607;DHT22;30315;46.072;14.474;2023-02-28T00:48:31;4.40;58.60
44607;DHT22;30315;46.072;14.474;2023-02-28T00:50:59;4.40;58.20
44607;DHT22;30315;46.072;14.474;2023-02-28T00:53:26;4.60;58.50
44607;DHT22;30315;46.072;14.474;2023-02-28T00:55:53;4.50;58.60
44607;DHT22;30315;46.072;14.474;2023-02-28T00:58:20;4.40;58.60
44607;DHT22;30315;46.072;14.474;2023-02-28T01:00:47;4.50;58.30
44607;DHT22;30315;46.072;14.474;2023-02-28T01:03:20;4.80;58.40
44607;DHT22;30315;46.072;14.474;2023-02-28T01:05:48;4.30;58.20
44607;DHT22;30315;46.072;14.474;2023-02-28T01:08:16;4.40;58.40
44607;DHT22;30315;46.072;14.474;2023-02-28T01:10:43;4.40;58.60
44607;DHT22;30315;46.072;14.474;2023-02-28T01:13:11;4.40;58.20
44607;DHT22;30315;46.072;14.474;2023-02-28T01:15:42;4.40;58.10
44607;DHT22;30315;46.072;14.474;2023-02-28T01:18:11;4.70;58.50
44607;DHT22;30315;46.072;14.474;2023-02-28T01:20:38;4.40;58.10
44607;DHT22;30315;46.072;14.474;2023-02-28T01:23:05;4.40;58.20
44607;DHT22;30315;46.072;14.474;2023-02-28T01:25:36;4.40;58.20
44607;DHT22;30315;46.072;14.474;2023-02-28T01:28:07;4.40;58.00
44607;DHT22;30315;46.072;14.474;2023-02-28T01:30:34;4.50;58.20
44607;DHT22;30315;46.072;14.474;2023-02-28T01:33:01;4.40;57.60
44607;DHT22;30315;46.072;14.474;2023-02-28T01:35:28;4.30;57.40
44607;DHT22;30315;46.072;14.474;2023-02-28T01:37:55;4.40;57.60
44607;DHT22;30315;46.072;14.474;2023-02-28T01:40:30;4.30;57.60
44607;DHT22;30315;46.072;14.474;2023-02-28T01:42:57;4.30;57.80
44607;DHT22;30315;46.072;14.474;2023-02-28T01:45:31;4.30;57.90
44607;DHT22;30315;46.072;14.474;2023-02-28T01:48:02;4.30;58.00
44607;DHT22;30315;46.072;14.474;2023-02-28T01:50:34;4.60;58.30
44607;DHT22;30315;46.072;14.474;2023-02-28T01:53:06;4.30;57.90
44607;DHT22;30315;46.072;14.474;2023-02-28T01:55:34;4.50;58.00
44607;DHT22;30315;46.072;14.474;2023-02-28T01:58:04;4.30;57.90
44607;DHT22;30315;46.072;14.474;2023-02-28T02:00:33;4.30;57.90
44607;DHT22;30315;46.072;14.474;2023-02-28T02:03:06;4.60;57.70
44607;DHT22;30315;46.072;14.474;2023-02-28T02:05:38;4.20;57.70
44607;DHT22;30315;46.072;14.474;2023-02-28T02:08:11;4.20;57.70
44607;DHT22;30315;46.072;14.474;2023-02-28T02:10:45;4.10;57.30
44607;DHT22;30315;46.072;14.474;2023-02-28T02:38:36;4.10;57.90
44607;DHT22;30315;46.072;14.474;2023-02-28T02:41:24;4.10;57.80
44607;DHT22;30315;46.072;14.474;2023-02-28T02:44:02;4.10;58.00
44607;DHT22;30315;46.072;14.474;2023-02-28T02:46:33;4.10;58.00
44607;DHT22;30315;46.072;14.474;2023-02-28T02:49:06;4.10;57.90
44607;DHT22;30315;46.072;14.474;2023-02-28T02:51:35;4.10;58.10
44607;DHT22;30315;46.072;14.474;2023-02-28T02:54:22;4.00;57.90
44607;DHT22;30315;46.072;14.474;2023-02-28T02:56:50;4.10;57.80
44607;DHT22;30315;46.072;14.474;2023-02-28T02:59:20;4.10;57.80
44607;DHT22;30315;46.072;14.474;2023-02-28T03:01:55;4.10;57.90
44607;DHT22;30315;46.072;14.474;2023-02-28T03:04:24;4.10;57.80
44607;DHT22;30315;46.072;14.474;2023-02-28T03:06:52;4.10;57.80
44607;DHT22;30315;46.072;14.474;2023-02-28T03:09:25;4.10;57.90
44607;DHT22;30315;46.072;14.474;2023-02-28T03:11:55;4.10;57.90
44607;DHT22;30315;46.072;14.474;2023-02-28T03:17:30;4.10;57.80
44607;DHT22;30315;46.072;14.474;2023-02-28T03:23:07;4.10;57.80
44607;DHT22;30315;46.072;14.474;2023-02-28T03:29:03;4.10;57.90
44607;DHT22;30315;46.072;14.474;2023-02-28T03:31:39;4.10;57.80
44607;DHT22;30315;46.072;14.474;2023-02-28T03:36:42;4.10;57.90
44607;DHT22;30315;46.072;14.474;2023-02-28T03:39:17;4.10;57.90
44607;DHT22;30315;46.072;14.474;2023-02-28T03:41:53;4.10;57.80
44607;DHT22;30315;46.072;14.474;2023-02-28T03:44:25;4.20;57.90
44607;DHT22;30315;46.072;14.474;2023-02-28T03:47:22;4.20;57.90
44607;DHT22;30315;46.072;14.474;2023-02-28T03:49:56;4.20;57.90
44607;DHT22;30315;46.072;14.474;2023-02-28T03:52:28;4.30;57.90
44607;DHT22;30315;46.072;14.474;2023-02-28T03:55:02;4.50;58.10
44607;DHT22;30315;46.072;14.474;2023-02-28T03:58:05;4.30;58.10
44607;DHT22;30315;46.072;14.474;2023-02-28T04:00:47;4.30;58.20
44607;DHT22;30315;46.072;14.474;2023-02-28T04:03:17;4.30;58.10
44607;DHT22;30315;46.072;14.474;2023-02-28T04:06:04;4.30;58.00
44607;DHT22;30315;46.072;14.474;2023-02-28T04:08:32;4.30;58.00
44607;DHT22;30315;46.072;14.474;2023-02-28T04:11:18;4.30;57.70
44607;DHT22;30315;46.072;14.474;2023-02-28T04:13:46;4.20;57.60
44607;DHT22;30315;46.072;14.474;2023-02-28T04:16:14;4.30;57.70
44607;DHT22;30315;46.072;14.474;2023-02-28T04:19:00;4.20;57.40
44607;DHT22;30315;46.072;14.474;2023-02-28T04:21:40;4.20;57.40
44607;DHT22;30315;46.072;14.474;2023-02-28T04:24:10;4.30;57.50
44607;DHT22;30315;46.072;14.474;2023-02-28T04:26:43;4.20;57.40
44607;DHT22;30315;46.072;14.474;2023-02-28T04:29:13;4.30;57.50
44607;DHT22;30315;46.072;14.474;2023-02-28T04:31:41;4.20;57.30
44607;DHT22;30315;46.072;14.474;2023-02-28T04:34:08;4.40;57.40
44607;DHT22;30315;46.072;14.474;2023-02-28T04:36:37;4.30;57.50
44607;DHT22;30315;46.072;14.474;2023-02-28T04:39:04;4.30;57.60
44607;DHT22;30315;46.072;14.474;2023-02-28T04:41:31;4.10;57.40
44607;DHT22;30315;46.072;14.474;2023-02-28T04:43:59;4.30;57.60
44607;DHT22;30315;46.072;14.474;2023-02-28T04:46:26;4.40;57.70
44607;DHT22;30315;46.072;14.474;2023-02-28T04:48:53;4.30;57.50
44607;DHT22;30315;46.072;14.474;2023-02-28T04:51:21;4.40;57.70
44607;DHT22;30315;46.072;14.474;2023-02-28T04:53:49;4.40;57.50
44607;DHT22;30315;46.072;14.474;2023-02-28T04:56:18;4.40;57.30
44607;DHT22;30315;46.072;14.474;2023-02-28T04:58:45;4.30;57.30
44607;DHT22;30315;46.072;14.474;2023-02-28T05:03:49;4.30;57.30
44607;DHT22;30315;46.072;14.474;2023-02-28T05:06:18;4.30;57.30
44607;DHT22;30315;46.072;14.474;2023-02-28T05:08:46;4.20;57.20
44607;DHT22;30315;46.072;14.474;2023-02-28T05:11:20;4.30;57.20
44607;DHT22;30315;46.072;14.474;2023-02-28T05:13:48;4.30;57.50
44607;DHT22;30315;46.072;14.474;2023-02-28T05:16:15;4.30;57.60
44607;DHT22;30315;46.072;14.474;2023-02-28T05:18:42;4.60;57.80
44607;DHT22;30315;46.072;14.474;2023-02-28T05:21:32;4.30;57.60
44607;DHT22;30315;46.072;14.474;2023-02-28T05:24:05;4.30;57.60
44607;DHT22;30315;46.072;14.474;2023-02-28T05:26:38;4.30;57.70
44607;DHT22;30315;46.072;14.474;2023-02-28T05:29:05;4.30;57.60
44607;DHT22;30315;46.072;14.474;2023-02-28T05:31:33;4.20;57.70
44607;DHT22;30315;46.072;14.474;2023-02-28T05:34:00;4.20;57.70
44607;DHT22;30315;46.072;14.474;2023-02-28T05:36:28;4.20;57.80
44607;DHT22;30315;46.072;14.474;2023-02-28T05:38:55;4.40;58.10
44607;DHT22;30315;46.072;14.474;2023-02-28T05:41:22;4.60;58.20
44607;DHT22;30315;46.072;14.474;2023-02-28T05:43:52;4.30;58.10
44607;DHT22;30315;46.072;14.474;2023-02-28T05:46:19;4.50;58.30
44607;DHT22;30315;46.072;14.474;2023-02-28T05:48:47;4.30;58.10
44607;DHT22;30315;46.072;14.474;2023-02-28T05:51:15;4.60;58.20
44607;DHT22;30315;46.072;14.474;2023-02-28T05:53:42;4.40;57.80
44607;DHT22;30315;46.072;14.474;2023-02-28T05:56:09;4.40;57.90
44607;DHT22;30315;46.072;14.474;2023-02-28T05:58:36;4.30;57.90
44607;DHT22;30315;46.072;14.474;2023-02-28T06:01:24;4.40;59.50
44607;DHT22;30315;46.072;14.474;2023-02-28T06:03:53;4.60;62.50
44607;DHT22;30315;46.072;14.474;2023-02-28T06:06:21;4.70;60.30
44607;DHT22;30315;46.072;14.474;2023-02-28T06:08:48;4.70;59.30
44607;DHT22;30315;46.072;14.474;2023-02-28T06:11:15;4.70;58.60
44607;DHT22;30315;46.072;14.474;2023-02-28T06:13:42;4.80;58.60
44607;DHT22;30315;46.072;14.474;2023-02-28T06:16:10;4.60;58.10
44607;DHT22;30315;46.072;14.474;2023-02-28T06:18:38;4.90;58.40
44607;DHT22;30315;46.072;14.474;2023-02-28T06:21:05;4.60;58.20
44607;DHT22;30315;46.072;14.474;2023-02-28T06:23:32;4.60;58.10
44607;DHT22;30315;46.072;14.474;2023-02-28T06:25:59;4.50;58.10
44607;DHT22;30315;46.072;14.474;2023-02-28T06:28:26;4.60;58.30
44607;DHT22;30315;46.072;14.474;2023-02-28T06:30:53;4.60;58.80
44607;DHT22;30315;46.072;14.474;2023-02-28T06:33:20;4.90;58.50
44607;DHT22;30315;46.072;14.474;2023-02-28T06:35:50;4.50;58.10
44607;DHT22;30315;46.072;14.474;2023-02-28T06:38:17;4.50;58.20
44607;DHT22;30315;46.072;14.474;2023-02-28T06:40:45;4.50;58.40
44607;DHT22;30315;46.072;14.474;2023-02-28T06:43:19;4.50;58.40
44607;DHT22;30315;46.072;14.474;2023-02-28T06:45:45;4.60;58.40
44607;DHT22;30315;46.072;14.474;2023-02-28T06:48:12;4.50;58.40
44607;DHT22;30315;46.072;14.474;2023-02-28T06:50:39;4.80;58.90
44607;DHT22;30315;46.072;14.474;2023-02-28T06:53:06;4.90;59.30
44607;DHT22;30315;46.072;14.474;2023-02-28T06:55:33;4.60;59.60
44607;DHT22;30315;46.072;14.474;2023-02-28T06:58:00;4.50;59.10
44607;DHT22;30315;46.072;14.474;2023-02-28T07:00:27;4.50;58.90
44607;DHT22;30315;46.072;14.474;2023-02-28T07:02:54;4.60;58.90
44607;DHT22;30315;46.072;14.474;2023-02-28T07:05:22;4.60;59.00
44607;DHT22;30315;46.072;14.474;2023-02-28T07:07:49;4.60;59.20
44607;DHT22;30315;46.072;14.474;2023-02-28T07:10:16;4.60;58.90
44607;DHT22;30315;46.072;14.474;2023-02-28T07:12:46;4.50;58.70
44607;DHT22;30315;46.072;14.474;2023-02-28T07:15:13;4.50;58.80
44607;DHT22;30315;46.072;14.474;2023-02-28T07:17:40;4.60;59.00
44607;DHT22;30315;46.072;14.474;2023-02-28T07:20:07;4.50;59.10
44607;DHT22;30315;46.072;14.474;2023-02-28T07:22:35;4.60;59.00
44607;DHT22;30315;46.072;14.474;2023-02-28T07:25:02;4.70;59.30
44607;DHT22;30315;46.072;14.474;2023-02-28T07:27:29;4.60;59.50
44607;DHT22;30315;46.072;14.474;2023-02-28T07:29:57;4.80;59.50
44607;DHT22;30315;46.072;14.474;2023-02-28T07:32:28;4.70;59.70
44607;DHT22;30315;46.072;14.474;2023-02-28T07:34:55;4.70;59.70
44607;DHT22;30315;46.072;14.474;2023-02-28T07:37:22;4.70;59.70
44607;DHT22;30315;46.072;14.474;2023-02-28T07:39:48;4.80;59.80
44607;DHT22;30315;46.072;14.474;2023-02-28T07:42:15;4.70;59.50
44607;DHT22;30315;46.072;14.474;2023-02-28T07:44:43;4.70;59.50
44607;DHT22;30315;46.072;14.474;2023-02-28T07:47:10;4.80;59.50
44607;DHT22;30315;46.072;14.474;2023-02-28T07:49:37;4.70;59.60
44607;DHT22;30315;46.072;14.474;2023-02-28T07:52:06;4.70;59.70
44607;DHT22;30315;46.072;14.474;2023-02-28T07:54:34;4.60;59.80
44607;DHT22;30315;46.072;14.474;2023-02-28T07:57:02;4.70;59.90
44607;DHT22;30315;46.072;14.474;2023-02-28T07:59:29;4.70;59.80
44607;DHT22;30315;46.072;14.474;2023-02-28T08:01:58;4.70;59.70
44607;DHT22;30315;46.072;14.474;2023-02-28T08:04:25;4.70;59.50
44607;DHT22;30315;46.072;14.474;2023-02-28T08:06:52;4.70;59.80
44607;DHT22;30315;46.072;14.474;2023-02-28T08:09:20;4.60;59.60
44607;DHT22;30315;46.072;14.474;2023-02-28T08:11:47;4.60;60.40
44607;DHT22;30315;46.072;14.474;2023-02-28T08:14:14;4.70;59.90
44607;DHT22;30315;46.072;14.474;2023-02-28T08:16:41;5.10;60.30
44607;DHT22;30315;46.072;14.474;2023-02-28T08:19:09;4.90;60.10
44607;DHT22;30315;46.072;14.474;2023-02-28T08:21:36;4.70;60.00
44607;DHT22;30315;46.072;14.474;2023-02-28T08:24:03;4.70;60.00
44607;DHT22;30315;46.072;14.474;2023-02-28T08:26:30;4.80;60.10
44607;DHT22;30315;46.072;14.474;2023-02-28T08:28:57;4.70;60.00
44607;DHT22;30315;46.072;14.474;2023-02-28T08:31:27;5.10;60.40
44607;DHT22;30315;46.072;14.474;2023-02-28T08:33:54;5.00;60.10
44607;DHT22;30315;46.072;14.474;2023-02-28T08:36:26;4.80;59.90
44607;DHT22;30315;46.072;14.474;2023-02-28T08:38:56;4.80;60.00
44607;DHT22;30315;46.072;14.474;2023-02-28T08:41:23;5.20;60.40
44607;DHT22;30315;46.072;14.474;2023-02-28T08:43:50;5.00;60.40
44607;DHT22;30315;46.072;14.474;2023-02-28T08:46:17;5.20;60.80
44607;DHT22;30315;46.072;14.474;2023-02-28T08:48:45;4.90;60.70
44607;DHT22;30315;46.072;14.474;2023-02-28T08:51:17;5.10;60.80
44607;DHT22;30315;46.072;14.474;2023-02-28T08:53:48;5.00;60.70
44607;DHT22;30315;46.072;14.474;2023-02-28T08:56:18;5.00;60.40
44607;DHT22;30315;46.072;14.474;2023-02-28T08:58:46;5.40;60.70
44607;DHT22;30315;46.072;14.474;2023-02-28T09:01:18;5.00;60.40
44607;DHT22;30315;46.072;14.474;2023-02-28T09:03:47;5.00;60.20
44607;DHT22;30315;46.072;14.474;2023-02-28T09:06:16;5.10;60.30
44607;DHT22;30315;46.072;14.474;2023-02-28T09:08:43;5.10;59.90
44607;DHT22;30315;46.072;14.474;2023-02-28T09:11:10;5.10;59.80
44607;DHT22;30315;46.072;14.474;2023-02-28T09:13:38;5.00;59.70
44607;DHT22;30315;46.072;14.474;2023-02-28T09:16:08;5.10;59.90
44607;DHT22;30315;46.072;14.474;2023-02-28T09:18:37;5.10;59.80
44607;DHT22;30315;46.072;14.474;2023-02-28T09:21:06;5.10;59.70
44607;DHT22;30315;46.072;14.474;2023-02-28T09:23:33;5.10;59.80
44607;DHT22;30315;46.072;14.474;2023-02-28T09:26:00;5.60;60.10
44607;DHT22;30315;46.072;14.474;2023-02-28T09:28:27;5.20;59.70
44607;DHT22;30315;46.072;14.474;2023-02-28T09:30:55;5.20;59.50
44607;DHT22;30315;46.072;14.474;2023-02-28T09:33:23;5.20;59.50
44607;DHT22;30315;46.072;14.474;2023-02-28T09:35:51;5.30;59.60
44607;DHT22;30315;46.072;14.474;2023-02-28T09:38:18;5.30;59.70
44607;DHT22;30315;46.072;14.474;2023-02-28T09:41:15;5.40;59.90
44607;DHT22;30315;46.072;14.474;2023-02-28T09:43:55;5.60;59.80
44607;DHT22;30315;46.072;14.474;2023-02-28T09:46:47;5.30;59.30
44607;DHT22;30315;46.072;14.474;2023-02-28T09:49:18;5.50;59.60
44607;DHT22;30315;46.072;14.474;2023-02-28T09:52:05;5.70;59.40
44607;DHT22;30315;46.072;14.474;2023-02-28T09:54:36;5.40;59.30
44607;DHT22;30315;46.072;14.474;2023-02-28T09:57:37;5.40;59.30
44607;DHT22;30315;46.072;14.474;2023-02-28T10:05:30;5.60;59.40
44607;DHT22;30315;46.072;14.474;2023-02-28T10:08:14;5.60;59.10
44607;DHT22;30315;46.072;14.474;2023-02-28T10:10:48;5.60;59.00
44607;DHT22;30315;46.072;14.474;2023-02-28T10:15:55;5.70;59.00
44607;DHT22;30315;46.072;14.474;2023-02-28T10:18:28;5.70;58.90
44607;DHT22;30315;46.072;14.474;2023-02-28T10:20:57;6.00;59.30
44607;DHT22;30315;46.072;14.474;2023-02-28T10:23:36;5.90;58.70
44607;DHT22;30315;46.072;14.474;2023-02-28T10:26:17;5.90;58.80
44607;DHT22;30315;46.072;14.474;2023-02-28T10:28:44;5.90;58.60
44607;DHT22;30315;46.072;14.474;2023-02-28T10:31:19;5.90;58.60
44607;DHT22;30315;46.072;14.474;2023-02-28T10:33:47;5.90;58.70
44607;DHT22;30315;46.072;14.474;2023-02-28T10:36:17;6.00;58.70
44607;DHT22;30315;46.072;14.474;2023-02-28T10:38:46;6.00;58.50
44607;DHT22;30315;46.072;14.474;2023-02-28T10:41:16;6.00;58.50
44607;DHT22;30315;46.072;14.474;2023-02-28T10:43:44;6.40;58.70
44607;DHT22;30315;46.072;14.474;2023-02-28T10:46:16;6.10;58.20
44607;DHT22;30315;46.072;14.474;2023-02-28T10:49:12;6.20;58.00
44607;DHT22;30315;46.072;14.474;2023-02-28T10:51:40;6.10;58.00
44607;DHT22;30315;46.072;14.474;2023-02-28T10:54:30;6.20;58.10
44607;DHT22;30315;46.072;14.474;2023-02-28T10:57:17;6.30;58.30
44607;DHT22;30315;46.072;14.474;2023-02-28T10:59:45;6.40;58.40
44607;DHT22;30315;46.072;14.474;2023-02-28T11:02:48;6.40;58.50
44607;DHT22;30315;46.072;14.474;2023-02-28T11:05:35;6.60;58.70
44607;DHT22;30315;46.072;14.474;2023-02-28T11:08:11;6.60;58.70
44607;DHT22;30315;46.072;14.474;2023-02-28T11:10:43;6.70;58.50
44607;DHT22;30315;46.072;14.474;2023-02-28T11:13:17;6.80;58.20
44607;DHT22;30315;46.072;14.474;2023-02-28T11:15:57;7.10;58.30
44607;DHT22;30315;46.072;14.474;2023-02-28T11:18:29;6.90;57.80
44607;DHT22;30315;46.072;14.474;2023-02-28T11:20:59;7.30;58.00
44607;DHT22;30315;46.072;14.474;2023-02-28T11:23:29;7.20;57.90
44607;DHT22;30315;46.072;14.474;2023-02-28T11:25:58;7.10;57.60
44607;DHT22;30315;46.072;14.474;2023-02-28T11:31:24;6.90;56.70
44607;DHT22;30315;46.072;14.474;2023-02-28T11:33:54;7.00;56.60
44607;DHT22;30315;46.072;14.474;2023-02-28T11:36:31;7.20;56.80
44607;DHT22;30315;46.072;14.474;2023-02-28T11:39:09;7.60;57.20
44607;DHT22;30315;46.072;14.474;2023-02-28T11:50:16;7.50;56.10
44607;DHT22;30315;46.072;14.474;2023-02-28T11:52:56;7.50;55.70
44607;DHT22;30315;46.072;14.474;2023-02-28T11:55:37;7.50;55.30
44607;DHT22;30315;46.072;14.474;2023-02-28T11:58:30;7.60;55.30
44607;DHT22;30315;46.072;14.474;2023-02-28T12:01:21;7.40;55.00
44607;DHT22;30315;46.072;14.474;2023-02-28T12:07:24;7.50;55.70
44607;DHT22;30315;46.072;14.474;2023-02-28T12:09:58;7.50;55.60
44607;DHT22;30315;46.072;14.474;2023-02-28T12:12:53;7.60;55.60
44607;DHT22;30315;46.072;14.474;2023-02-28T12:21:08;7.60;54.80
44607;DHT22;30315;46.072;14.474;2023-02-28T12:26:45;7.70;54.80
44607;DHT22;30315;46.072;14.474;2023-02-28T12:29:22;7.90;54.30
44607;DHT22;30315;46.072;14.474;2023-02-28T12:34:39;7.70;54.00
44607;DHT22;30315;46.072;14.474;2023-02-28T12:37:13;7.90;54.20
44607;DHT22;30315;46.072;14.474;2023-02-28T12:39:44;7.60;53.60
44607;DHT22;30315;46.072;14.474;2023-02-28T12:42:31;7.60;54.00
44607;DHT22;30315;46.072;14.474;2023-02-28T12:45:03;7.70;54.00
44607;DHT22;30315;46.072;14.474;2023-02-28T12:47:31;7.80;54.10
44607;DHT22;30315;46.072;14.474;2023-02-28T12:50:05;7.90;54.30
44607;DHT22;30315;46.072;14.474;2023-02-28T12:52:59;7.90;54.00
44607;DHT22;30315;46.072;14.474;2023-02-28T12:58:38;8.10;53.70
44607;DHT22;30315;46.072;14.474;2023-02-28T13:09:19;8.10;52.50
44607;DHT22;30315;46.072;14.474;2023-02-28T13:11:49;8.20;53.40
44607;DHT22;30315;46.072;14.474;2023-02-28T13:17:12;8.10;52.70
44607;DHT22;30315;46.072;14.474;2023-02-28T13:22:43;8.00;52.40
44607;DHT22;30315;46.072;14.474;2023-02-28T13:28:13;7.90;52.20
44607;DHT22;30315;46.072;14.474;2023-02-28T13:31:05;7.80;52.10
44607;DHT22;30315;46.072;14.474;2023-02-28T13:33:36;7.80;52.30
44607;DHT22;30315;46.072;14.474;2023-02-28T13:36:31;7.80;52.30
44607;DHT22;30315;46.072;14.474;2023-02-28T13:38:59;7.80;52.00
44607;DHT22;30315;46.072;14.474;2023-02-28T13:49:26;7.70;53.00
44607;DHT22;30315;46.072;14.474;2023-02-28T13:54:44;7.80;53.30
44607;DHT22;30315;46.072;14.474;2023-02-28T13:57:42;7.90;53.30
44607;DHT22;30315;46.072;14.474;2023-02-28T14:03:22;7.90;52.50
44607;DHT22;30315;46.072;14.474;2023-02-28T14:06:14;8.00;52.70
44607;DHT22;30315;46.072;14.474;2023-02-28T14:08:55;8.00;52.70
44607;DHT22;30315;46.072;14.474;2023-02-28T14:11:30;8.10;52.70
44607;DHT22;30315;46.072;14.474;2023-02-28T14:13:58;8.10;52.70
44607;DHT22;30315;46.072;14.474;2023-02-28T14:16:34;8.10;52.60
44607;DHT22;30315;46.072;14.474;2023-02-28T14:19:12;8.10;52.60
44607;DHT22;30315;46.072;14.474;2023-02-28T14:27:11;8.00;52.50
44607;DHT22;30315;46.072;14.474;2023-02-28T14:35:13;8.00;53.00
44607;DHT22;30315;46.072;14.474;2023-02-28T14:37:43;8.00;52.80
44607;DHT22;30315;46.072;14.474;2023-02-28T14:40:37;8.00;52.90
44607;DHT22;30315;46.072;14.474;2023-02-28T14:43:16;7.90;52.60
44607;DHT22;30315;46.072;14.474;2023-02-28T14:45:54;8.10;52.50
44607;DHT22;30315;46.072;14.474;2023-02-28T14:48:23;7.80;52.40
44607;DHT22;30315;46.072;14.474;2023-02-28T14:50:53;7.80;52.60
44607;DHT22;30315;46.072;14.474;2023-02-28T14:53:23;8.00;52.90
44607;DHT22;30315;46.072;14.474;2023-02-28T14:55:52;7.70;52.80
44607;DHT22;30315;46.072;14.474;2023-02-28T14:58:28;7.70;52.60
44607;DHT22;30315;46.072;14.474;2023-02-28T15:00:58;7.60;52.70
44607;DHT22;30315;46.072;14.474;2023-02-28T15:03:36;7.60;52.90
44607;DHT22;30315;46.072;14.474;2023-02-28T15:06:15;7.50;52.90
44607;DHT22;30315;46.072;14.474;2023-02-28T15:08:44;7.50;53.10
44607;DHT22;30315;46.072;14.474;2023-02-28T15:11:17;7.40;53.20
44607;DHT22;30315;46.072;14.474;2023-02-28T15:13:54;7.30;53.30
44607;DHT22;30315;46.072;14.474;2023-02-28T15:16:40;7.30;53.60
44607;DHT22;30315;46.072;14.474;2023-02-28T15:19:16;7.30;53.70
44607;DHT22;30315;46.072;14.474;2023-02-28T15:21:48;7.30;53.90
44607;DHT22;30315;46.072;14.474;2023-02-28T15:24:21;7.70;54.20
44607;DHT22;30315;46.072;14.474;2023-02-28T15:26:54;7.20;53.90
44607;DHT22;30315;46.072;14.474;2023-02-28T15:29:41;7.20;53.90
44607;DHT22;30315;46.072;14.474;2023-02-28T15:32:30;7.20;53.80
44607;DHT22;30315;46.072;14.474;2023-02-28T15:34:59;7.20;53.70
44607;DHT22;30315;46.072;14.474;2023-02-28T15:37:55;7.10;53.60
44607;DHT22;30315;46.072;14.474;2023-02-28T15:48:27;7.00;54.10
44607;DHT22;30315;46.072;14.474;2023-02-28T15:51:02;6.80;53.90
44607;DHT22;30315;46.072;14.474;2023-02-28T15:53:36;7.00;54.20
44607;DHT22;30315;46.072;14.474;2023-02-28T15:56:22;7.20;54.50
44607;DHT22;30315;46.072;14.474;2023-02-28T15:58:52;7.00;54.40
44607;DHT22;30315;46.072;14.474;2023-02-28T16:01:29;6.90;54.50
44607;DHT22;30315;46.072;14.474;2023-02-28T16:04:01;6.90;54.60
44607;DHT22;30315;46.072;14.474;2023-02-28T16:06:46;6.90;54.50
44607;DHT22;30315;46.072;14.474;2023-02-28T16:09:15;6.90;54.50
44607;DHT22;30315;46.072;14.474;2023-02-28T16:11:49;6.90;54.50
44607;DHT22;30315;46.072;14.474;2023-02-28T16:14:22;6.80;54.50
44607;DHT22;30315;46.072;14.474;2023-02-28T16:16:52;6.90;54.80
44607;DHT22;30315;46.072;14.474;2023-02-28T16:19:19;6.80;54.90
44607;DHT22;30315;46.072;14.474;2023-02-28T16:21:47;6.80;54.80
44607;DHT22;30315;46.072;14.474;2023-02-28T16:24:14;6.80;54.90
44607;DHT22;30315;46.072;14.474;2023-02-28T16:26:46;6.70;55.00
44607;DHT22;30315;46.072;14.474;2023-02-28T16:29:25;6.50;54.70
44607;DHT22;30315;46.072;14.474;2023-02-28T16:31:53;6.80;55.20
44607;DHT22;30315;46.072;14.474;2023-02-28T16:34:21;6.70;55.20
44607;DHT22;30315;46.072;14.474;2023-02-28T16:36:48;6.70;55.30
44607;DHT22;30315;46.072;14.474;2023-02-28T16:39:16;6.70;54.80
44607;DHT22;30315;46.072;14.474;2023-02-28T16:41:44;6.90;55.10
44607;DHT22;30315;46.072;14.474;2023-02-28T16:44:29;6.60;55.10
44607;DHT22;30315;46.072;14.474;2023-02-28T16:47:00;6.70;55.10
44607;DHT22;30315;46.072;14.474;2023-02-28T16:49:27;6.60;55.00
44607;DHT22;30315;46.072;14.474;2023-02-28T16:51:55;6.60;55.20
44607;DHT22;30315;46.072;14.474;2023-02-28T16:54:22;6.60;55.30
44607;DHT22;30315;46.072;14.474;2023-02-28T16:56:54;6.60;55.20
44607;DHT22;30315;46.072;14.474;2023-02-28T16:59:26;6.60;55.20
44607;DHT22;30315;46.072;14.474;2023-02-28T17:01:54;6.60;55.30
44607;DHT22;30315;46.072;14.474;2023-02-28T17:04:26;6.50;55.50
44607;DHT22;30315;46.072;14.474;2023-02-28T17:06:54;6.50;55.80
44607;DHT22;30315;46.072;14.474;2023-02-28T17:09:22;6.50;55.80
44607;DHT22;30315;46.072;14.474;2023-02-28T17:11:56;6.50;55.90
44607;DHT22;30315;46.072;14.474;2023-02-28T17:14:23;6.80;56.10
44607;DHT22;30315;46.072;14.474;2023-02-28T17:16:50;6.50;55.90
44607;DHT22;30315;46.072;14.474;2023-02-28T17:19:17;6.90;56.30
44607;DHT22;30315;46.072;14.474;2023-02-28T17:21:45;6.50;56.00
44607;DHT22;30315;46.072;14.474;2023-02-28T17:24:12;6.50;56.30
44607;DHT22;30315;46.072;14.474;2023-02-28T17:26:45;6.70;56.50
44607;DHT22;30315;46.072;14.474;2023-02-28T17:29:17;6.70;56.60
44607;DHT22;30315;46.072;14.474;2023-02-28T17:31:44;6.50;56.50
44607;DHT22;30315;46.072;14.474;2023-02-28T17:34:12;6.50;56.60
44607;DHT22;30315;46.072;14.474;2023-02-28T17:36:45;6.90;56.70
44607;DHT22;30315;46.072;14.474;2023-02-28T17:39:14;6.50;56.50
44607;DHT22;30315;46.072;14.474;2023-02-28T17:41:41;6.40;56.50
44607;DHT22;30315;46.072;14.474;2023-02-28T17:44:08;6.90;57.00
44607;DHT22;30315;46.072;14.474;2023-02-28T17:46:36;6.50;56.80
44607;DHT22;30315;46.072;14.474;2023-02-28T17:49:03;6.60;57.00
44607;DHT22;30315;46.072;14.474;2023-02-28T17:51:30;6.50;57.10
44607;DHT22;30315;46.072;14.474;2023-02-28T17:53:57;6.40;57.00
44607;DHT22;30315;46.072;14.474;2023-02-28T17:56:25;6.40;57.10
44607;DHT22;30315;46.072;14.474;2023-02-28T17:58:54;6.40;57.20
44607;DHT22;30315;46.072;14.474;2023-02-28T18:01:22;6.50;57.30
44607;DHT22;30315;46.072;14.474;2023-02-28T18:03:51;6.40;56.90
44607;DHT22;30315;46.072;14.474;2023-02-28T18:06:42;6.40;57.00